sensor_id;sensor_type;location;lat;lon;timestamp;temperature;humidity
69054;DHT22;56125;52.242;4.756;2023-07-31T00:04:47;21.10;68.70
69054;DHT22;56125;52.242;4.756;2023-07-31T00:09:49;21.00;68.50
69054;DHT22;56125;52.242;4.756;2023-07-31T00:14:50;21.10;68.70
69054;DHT22;56125;52.242;4.756;2023-07-31T00:19:51;21.10;68.70
69054;DHT22;56125;52.242;4.756;2023-07-31T00:24:52;21.10;68.60
69054;DHT22;56125;52.242;4.756;2023-07-31T00:29:53;21.10;68.80
69054;DHT22;56125;52.242;4.756;2023-07-31T00:34:54;21.10;68.70
69054;DHT22;56125;52.242;4.756;2023-07-31T00:39:55;21.10;68.50
69054;DHT22;56125;52.242;4.756;2023-07-31T00:44:56;21.10;68.50
69054;DHT22;56125;52.242;4.756;2023-07-31T00:49:58;21.00;68.30
69054;DHT22;56125;52.242;4.756;2023-07-31T00:54:59;21.10;68.20
69054;DHT22;56125;52.242;4.756;2023-07-31T01:00:00;21.10;68.20
69054;DHT22;56125;52.242;4.756;2023-07-31T01:05:03;21.10;68.20
69054;DHT22;56125;52.242;4.756;2023-07-31T01:10:13;21.10;68.30
69054;DHT22;56125;52.242;4.756;2023-07-31T01:15:17;21.10;68.50
69054;DHT22;56125;52.242;4.756;2023-07-31T01:20:23;21.00;68.40
69054;DHT22;56125;52.242;4.756;2023-07-31T01:26:03;21.00;68.60
69054;DHT22;56125;52.242;4.756;2023-07-31T01:31:07;21.00;68.50
69054;DHT22;56125;52.242;4.756;2023-07-31T01:36:10;21.10;68.80
69054;DHT22;56125;52.242;4.756;2023-07-31T01:41:12;21.00;68.60
69054;DHT22;56125;52.242;4.756;2023-07-31T01:46:14;21.10;68.50
69054;DHT22;56125;52.242;4.756;2023-07-31T01:51:15;21.00;68.60
69054;DHT22;56125;52.242;4.756;2023-07-31T01:56:16;21.00;68.50
69054;DHT22;56125;52.242;4.756;2023-07-31T02:01:17;21.00;68.60
69054;DHT22;56125;52.242;4.756;2023-07-31T02:06:18;21.00;68.40
69054;DHT22;56125;52.242;4.756;2023-07-31T02:11:19;21.00;68.60
69054;DHT22;56125;52.242;4.756;2023-07-31T02:16:20;21.00;68.60
69054;DHT22;56125;52.242;4.756;2023-07-31T02:21:21;21.00;68.40
69054;DHT22;56125;52.242;4.756;2023-07-31T02:26:22;21.00;68.50
69054;DHT22;56125;52.242;4.756;2023-07-31T02:31:23;21.00;68.40
69054;DHT22;56125;52.242;4.756;2023-07-31T02:36:24;21.00;68.30
69054;DHT22;56125;52.242;4.756;2023-07-31T02:41:25;21.00;68.30
69054;DHT22;56125;52.242;4.756;2023-07-31T02:46:26;21.00;68.20
69054;DHT22;56125;52.242;4.756;2023-07-31T02:51:27;21.00;68.10
69054;DHT22;56125;52.242;4.756;2023-07-31T02:56:28;21.00;68.10
69054;DHT22;56125;52.242;4.756;2023-07-31T03:01:29;21.00;68.30
69054;DHT22;56125;52.242;4.756;2023-07-31T03:06:30;21.00;68.20
69054;DHT22;56125;52.242;4.756;2023-07-31T03:11:31;21.00;68.30
69054;DHT22;56125;52.242;4.756;2023-07-31T03:16:32;21.00;68.10
69054;DHT22;56125;52.242;4.756;2023-07-31T03:21:33;21.00;68.10
69054;DHT22;56125;52.242;4.756;2023-07-31T03:26:34;21.00;68.00
69054;DHT22;56125;52.242;4.756;2023-07-31T03:31:37;21.00;67.90
69054;DHT22;56125;52.242;4.756;2023-07-31T03:36:38;21.00;67.90
69054;DHT22;56125;52.242;4.756;2023-07-31T03:41:39;21.00;67.90
69054;DHT22;56125;52.242;4.756;2023-07-31T03:46:40;21.00;67.70
69054;DHT22;56125;52.242;4.756;2023-07-31T03:51:41;21.00;67.80
69054;DHT22;56125;52.242;4.756;2023-07-31T03:56:42;21.00;67.90
69054;DHT22;56125;52.242;4.756;2023-07-31T04:01:43;21.00;68.10
69054;DHT22;56125;52.242;4.756;2023-07-31T04:06:44;21.00;68.00
69054;DHT22;56125;52.242;4.756;2023-07-31T04:11:45;21.00;68.10
69054;DHT22;56125;52.242;4.756;2023-07-31T04:16:46;21.00;68.10
69054;DHT22;56125;52.242;4.756;2023-07-31T04:21:47;21.00;68.00
69054;DHT22;56125;52.242;4.756;2023-07-31T04:26:48;21.00;68.10
69054;DHT22;56125;52.242;4.756;2023-07-31T04:31:49;21.00;68.20
69054;DHT22;56125;52.242;4.756;2023-07-31T04:36:50;21.00;68.10
69054;DHT22;56125;52.242;4.756;2023-07-31T04:41:51;21.00;68.10
69054;DHT22;56125;52.242;4.756;2023-07-31T04:46:52;21.00;68.20
69054;DHT22;56125;52.242;4.756;2023-07-31T04:51:53;21.00;68.20
69054;DHT22;56125;52.242;4.756;2023-07-31T04:56:54;21.00;68.30
69054;DHT22;56125;52.242;4.756;2023-07-31T05:01:55;21.00;68.20
69054;DHT22;56125;52.242;4.756;2023-07-31T05:06:56;21.00;68.20
69054;DHT22;56125;52.242;4.756;2023-07-31T05:11:57;21.00;68.20
69054;DHT22;56125;52.242;4.756;2023-07-31T05:16:58;21.00;68.30
69054;DHT22;56125;52.242;4.756;2023-07-31T05:21:59;21.00;68.40
69054;DHT22;56125;52.242;4.756;2023-07-31T05:27:00;21.00;68.60
69054;DHT22;56125;52.242;4.756;2023-07-31T05:32:01;20.90;68.70
69054;DHT22;56125;52.242;4.756;2023-07-31T05:37:03;21.00;68.60
69054;DHT22;56125;52.242;4.756;2023-07-31T05:42:04;21.00;68.60
69054;DHT22;56125;52.242;4.756;2023-07-31T05:47:05;21.00;68.60
69054;DHT22;56125;52.242;4.756;2023-07-31T05:52:06;21.00;68.60
69054;DHT22;56125;52.242;4.756;2023-07-31T05:57:07;20.90;68.50
69054;DHT22;56125;52.242;4.756;2023-07-31T06:02:09;20.90;68.50
69054;DHT22;56125;52.242;4.756;2023-07-31T06:07:10;21.00;68.60
69054;DHT22;56125;52.242;4.756;2023-07-31T06:12:11;20.90;68.40
69054;DHT22;56125;52.242;4.756;2023-07-31T06:17:13;21.00;68.60
69054;DHT22;56125;52.242;4.756;2023-07-31T06:22:14;20.90;68.80
69054;DHT22;56125;52.242;4.756;2023-07-31T06:27:15;20.90;68.70
69054;DHT22;56125;52.242;4.756;2023-07-31T06:32:16;20.90;68.60
69054;DHT22;56125;52.242;4.756;2023-07-31T06:37:17;20.90;68.70
69054;DHT22;56125;52.242;4.756;2023-07-31T06:42:18;20.90;68.80
69054;DHT22;56125;52.242;4.756;2023-07-31T06:47:19;20.90;68.80
69054;DHT22;56125;52.242;4.756;2023-07-31T06:52:20;20.90;68.90
69054;DHT22;56125;52.242;4.756;2023-07-31T06:57:21;21.00;69.10
69054;DHT22;56125;52.242;4.756;2023-07-31T07:02:22;20.90;69.00
69054;DHT22;56125;52.242;4.756;2023-07-31T07:07:23;21.00;69.10
69054;DHT22;56125;52.242;4.756;2023-07-31T07:12:24;20.90;69.10
69054;DHT22;56125;52.242;4.756;2023-07-31T07:17:29;21.00;69.20
69054;DHT22;56125;52.242;4.756;2023-07-31T07:22:33;21.00;70.20
69054;DHT22;56125;52.242;4.756;2023-07-31T07:27:34;21.00;68.80
69054;DHT22;56125;52.242;4.756;2023-07-31T07:32:35;21.00;68.80
69054;DHT22;56125;52.242;4.756;2023-07-31T07:37:36;21.00;69.40
69054;DHT22;56125;52.242;4.756;2023-07-31T07:42:37;21.00;69.70
69054;DHT22;56125;52.242;4.756;2023-07-31T07:47:41;21.00;70.20
69054;DHT22;56125;52.242;4.756;2023-07-31T07:52:43;21.00;70.40
69054;DHT22;56125;52.242;4.756;2023-07-31T07:57:44;21.00;70.60
69054;DHT22;56125;52.242;4.756;2023-07-31T08:02:45;21.00;70.80
69054;DHT22;56125;52.242;4.756;2023-07-31T08:07:46;21.10;71.10
69054;DHT22;56125;52.242;4.756;2023-07-31T08:12:47;21.10;71.20
69054;DHT22;56125;52.242;4.756;2023-07-31T08:17:48;21.10;71.50
69054;DHT22;56125;52.242;4.756;2023-07-31T08:22:49;21.10;71.30
69054;DHT22;56125;52.242;4.756;2023-07-31T08:27:50;21.10;71.50
69054;DHT22;56125;52.242;4.756;2023-07-31T08:32:53;21.10;72.20
69054;DHT22;56125;52.242;4.756;2023-07-31T08:37:54;21.10;71.60
69054;DHT22;56125;52.242;4.756;2023-07-31T08:42:56;21.10;71.60
69054;DHT22;56125;52.242;4.756;2023-07-31T08:47:58;21.10;72.30
69054;DHT22;56125;52.242;4.756;2023-07-31T08:53:00;21.10;72.30
69054;DHT22;56125;52.242;4.756;2023-07-31T08:58:03;21.10;72.60
69054;DHT22;56125;52.242;4.756;2023-07-31T09:03:15;21.10;72.40
69054;DHT22;56125;52.242;4.756;2023-07-31T09:08:21;21.10;72.70
69054;DHT22;56125;52.242;4.756;2023-07-31T09:13:22;21.10;73.00
69054;DHT22;56125;52.242;4.756;2023-07-31T09:18:23;21.10;73.00
69054;DHT22;56125;52.242;4.756;2023-07-31T09:23:44;21.20;73.10
69054;DHT22;56125;52.242;4.756;2023-07-31T09:28:46;21.20;73.00
69054;DHT22;56125;52.242;4.756;2023-07-31T09:33:55;21.20;73.10
69054;DHT22;56125;52.242;4.756;2023-07-31T09:39:02;21.20;73.30
69054;DHT22;56125;52.242;4.756;2023-07-31T09:44:04;21.20;73.40
69054;DHT22;56125;52.242;4.756;2023-07-31T09:49:09;21.20;73.30
69054;DHT22;56125;52.242;4.756;2023-07-31T09:54:15;21.20;73.20
69054;DHT22;56125;52.242;4.756;2023-07-31T09:59:18;21.20;73.30
69054;DHT22;56125;52.242;4.756;2023-07-31T10:04:22;21.20;73.00
69054;DHT22;56125;52.242;4.756;2023-07-31T10:09:31;21.20;73.10
69054;DHT22;56125;52.242;4.756;2023-07-31T10:14:32;21.20;73.10
69054;DHT22;56125;52.242;4.756;2023-07-31T10:19:34;21.20;73.10
69054;DHT22;56125;52.242;4.756;2023-07-31T10:24:37;21.20;72.90
69054;DHT22;56125;52.242;4.756;2023-07-31T10:29:39;21.20;73.40
69054;DHT22;56125;52.242;4.756;2023-07-31T10:34:41;21.20;73.20
69054;DHT22;56125;52.242;4.756;2023-07-31T10:39:42;21.30;73.20
69054;DHT22;56125;52.242;4.756;2023-07-31T10:44:46;21.20;73.30
69054;DHT22;56125;52.242;4.756;2023-07-31T10:49:47;21.30;73.20
69054;DHT22;56125;52.242;4.756;2023-07-31T10:55:25;21.20;73.30
69054;DHT22;56125;52.242;4.756;2023-07-31T11:00:28;21.20;73.10
69054;DHT22;56125;52.242;4.756;2023-07-31T11:05:49;21.30;73.20
69054;DHT22;56125;52.242;4.756;2023-07-31T11:11:10;21.20;72.70
69054;DHT22;56125;52.242;4.756;2023-07-31T11:16:13;21.30;72.60
69054;DHT22;56125;52.242;4.756;2023-07-31T11:21:19;21.30;72.60
69054;DHT22;56125;52.242;4.756;2023-07-31T11:26:20;21.30;72.20
69054;DHT22;56125;52.242;4.756;2023-07-31T11:31:21;21.30;72.10
69054;DHT22;56125;52.242;4.756;2023-07-31T11:36:22;21.30;72.60
69054;DHT22;56125;52.242;4.756;2023-07-31T11:41:23;21.30;72.00
69054;DHT22;56125;52.242;4.756;2023-07-31T11:46:24;21.30;71.70
69054;DHT22;56125;52.242;4.756;2023-07-31T11:51:26;21.40;71.80
69054;DHT22;56125;52.242;4.756;2023-07-31T11:56:27;21.30;71.70
69054;DHT22;56125;52.242;4.756;2023-07-31T12:01:29;21.30;72.00
69054;DHT22;56125;52.242;4.756;2023-07-31T12:06:34;21.30;71.90
69054;DHT22;56125;52.242;4.756;2023-07-31T12:11:45;21.30;71.60
69054;DHT22;56125;52.242;4.756;2023-07-31T12:16:46;21.30;71.70
69054;DHT22;56125;52.242;4.756;2023-07-31T12:21:47;21.40;72.10
69054;DHT22;56125;52.242;4.756;2023-07-31T12:26:49;21.40;71.70
69054;DHT22;56125;52.242;4.756;2023-07-31T12:31:50;21.40;71.50
69054;DHT22;56125;52.242;4.756;2023-07-31T12:36:53;21.40;71.30
69054;DHT22;56125;52.242;4.756;2023-07-31T12:41:54;21.40;71.30
69054;DHT22;56125;52.242;4.756;2023-07-31T12:46:55;21.40;71.20
69054;DHT22;56125;52.242;4.756;2023-07-31T12:51:56;21.40;71.70
69054;DHT22;56125;52.242;4.756;2023-07-31T12:56:57;21.40;71.00
69054;DHT22;56125;52.242;4.756;2023-07-31T13:01:58;21.40;70.90
69054;DHT22;56125;52.242;4.756;2023-07-31T13:06:59;21.40;71.30
69054;DHT22;56125;52.242;4.756;2023-07-31T13:12:00;21.50;72.40
69054;DHT22;56125;52.242;4.756;2023-07-31T13:17:01;21.50;72.40
69054;DHT22;56125;52.242;4.756;2023-07-31T13:22:02;21.50;72.80
69054;DHT22;56125;52.242;4.756;2023-07-31T13:27:04;21.50;72.30
69054;DHT22;56125;52.242;4.756;2023-07-31T13:32:05;21.50;72.00
69054;DHT22;56125;52.242;4.756;2023-07-31T13:37:06;21.50;72.00
69054;DHT22;56125;52.242;4.756;2023-07-31T13:42:08;21.50;71.90
69054;DHT22;56125;52.242;4.756;2023-07-31T13:47:12;21.50;72.10
69054;DHT22;56125;52.242;4.756;2023-07-31T13:52:13;21.50;72.60
69054;DHT22;56125;52.242;4.756;2023-07-31T13:57:14;21.50;72.30
69054;DHT22;56125;52.242;4.756;2023-07-31T14:02:15;21.50;72.70
69054;DHT22;56125;52.242;4.756;2023-07-31T14:07:16;21.50;72.60
69054;DHT22;56125;52.242;4.756;2023-07-31T14:12:18;21.50;72.60
69054;DHT22;56125;52.242;4.756;2023-07-31T14:17:19;21.50;72.80
69054;DHT22;56125;52.242;4.756;2023-07-31T14:22:38;21.40;72.50
69054;DHT22;56125;52.242;4.756;2023-07-31T14:27:39;21.50;72.60
69054;DHT22;56125;52.242;4.756;2023-07-31T14:32:40;21.40;72.40
69054;DHT22;56125;52.242;4.756;2023-07-31T14:37:43;21.40;72.40
69054;DHT22;56125;52.242;4.756;2023-07-31T14:42:44;21.50;72.00
69054;DHT22;56125;52.242;4.756;2023-07-31T14:47:45;21.50;72.10
69054;DHT22;56125;52.242;4.756;2023-07-31T14:52:46;21.50;72.20
69054;DHT22;56125;52.242;4.756;2023-07-31T14:57:47;21.50;72.10
69054;DHT22;56125;52.242;4.756;2023-07-31T15:02:48;21.50;72.10
69054;DHT22;56125;52.242;4.756;2023-07-31T15:07:49;21.50;72.30
69054;DHT22;56125;52.242;4.756;2023-07-31T15:12:50;21.50;72.20
69054;DHT22;56125;52.242;4.756;2023-07-31T15:17:51;21.50;72.00
69054;DHT22;56125;52.242;4.756;2023-07-31T15:22:52;21.50;72.50
69054;DHT22;56125;52.242;4.756;2023-07-31T15:27:53;21.40;72.60
69054;DHT22;56125;52.242;4.756;2023-07-31T15:32:54;21.50;72.30
69054;DHT22;56125;52.242;4.756;2023-07-31T15:37:55;21.50;72.00
69054;DHT22;56125;52.242;4.756;2023-07-31T15:42:56;21.50;71.90
69054;DHT22;56125;52.242;4.756;2023-07-31T15:47:57;21.50;72.30
69054;DHT22;56125;52.242;4.756;2023-07-31T15:52:58;21.40;72.20
69054;DHT22;56125;52.242;4.756;2023-07-31T15:57:59;21.50;72.10
69054;DHT22;56125;52.242;4.756;2023-07-31T16:03:00;21.50;72.30
69054;DHT22;56125;52.242;4.756;2023-07-31T16:08:01;21.40;72.00
69054;DHT22;56125;52.242;4.756;2023-07-31T16:13:03;21.50;72.50
69054;DHT22;56125;52.242;4.756;2023-07-31T16:18:04;21.50;72.10
69054;DHT22;56125;52.242;4.756;2023-07-31T16:23:05;21.40;71.90
69054;DHT22;56125;52.242;4.756;2023-07-31T16:28:07;21.50;72.50
69054;DHT22;56125;52.242;4.756;2023-07-31T16:33:08;21.40;72.90
69054;DHT22;56125;52.242;4.756;2023-07-31T16:38:09;21.40;73.60
69054;DHT22;56125;52.242;4.756;2023-07-31T16:43:10;21.40;73.80
69054;DHT22;56125;52.242;4.756;2023-07-31T16:48:11;21.40;73.80
69054;DHT22;56125;52.242;4.756;2023-07-31T16:53:12;21.40;73.90
69054;DHT22;56125;52.242;4.756;2023-07-31T16:58:14;21.40;73.90
69054;DHT22;56125;52.242;4.756;2023-07-31T17:03:15;21.40;73.90
69054;DHT22;56125;52.242;4.756;2023-07-31T17:08:16;21.40;73.70
69054;DHT22;56125;52.242;4.756;2023-07-31T17:13:17;21.40;73.50
69054;DHT22;56125;52.242;4.756;2023-07-31T17:18:18;21.40;73.60
69054;DHT22;56125;52.242;4.756;2023-07-31T17:23:19;21.40;73.60
69054;DHT22;56125;52.242;4.756;2023-07-31T17:28:20;21.40;73.70
69054;DHT22;56125;52.242;4.756;2023-07-31T17:33:21;21.40;73.70
69054;DHT22;56125;52.242;4.756;2023-07-31T17:38:22;21.40;73.90
69054;DHT22;56125;52.242;4.756;2023-07-31T17:43:23;21.40;73.90
69054;DHT22;56125;52.242;4.756;2023-07-31T17:48:25;21.40;74.30
69054;DHT22;56125;52.242;4.756;2023-07-31T17:53:26;21.40;74.40
69054;DHT22;56125;52.242;4.756;2023-07-31T17:58:27;21.30;74.30
69054;DHT22;56125;52.242;4.756;2023-07-31T18:03:28;21.30;74.50
69054;DHT22;56125;52.242;4.756;2023-07-31T18:08:29;21.30;74.20
69054;DHT22;56125;52.242;4.756;2023-07-31T18:13:30;21.30;74.40
69054;DHT22;56125;52.242;4.756;2023-07-31T18:18:31;21.30;74.50
69054;DHT22;56125;52.242;4.756;2023-07-31T18:23:32;21.30;74.40
69054;DHT22;56125;52.242;4.756;2023-07-31T18:28:33;21.40;74.00
69054;DHT22;56125;52.242;4.756;2023-07-31T18:33:34;21.40;75.20
69054;DHT22;56125;52.242;4.756;2023-07-31T18:38:36;21.40;74.10
69054;DHT22;56125;52.242;4.756;2023-07-31T18:43:37;21.40;74.70
69054;DHT22;56125;52.242;4.756;2023-07-31T18:48:38;21.40;75.00
69054;DHT22;56125;52.242;4.756;2023-07-31T18:53:39;21.40;74.40
69054;DHT22;56125;52.242;4.756;2023-07-31T18:58:40;21.70;74.80
69054;DHT22;56125;52.242;4.756;2023-07-31T19:03:41;21.50;74.70
69054;DHT22;56125;52.242;4.756;2023-07-31T19:08:42;21.50;74.50
69054;DHT22;56125;52.242;4.756;2023-07-31T19:13:43;21.50;74.40
69054;DHT22;56125;52.242;4.756;2023-07-31T19:18:45;21.40;73.70
69054;DHT22;56125;52.242;4.756;2023-07-31T19:23:46;21.40;73.70
69054;DHT22;56125;52.242;4.756;2023-07-31T19:28:47;21.40;73.30
69054;DHT22;56125;52.242;4.756;2023-07-31T19:33:48;21.40;73.10
69054;DHT22;56125;52.242;4.756;2023-07-31T19:38:49;21.40;72.80
69054;DHT22;56125;52.242;4.756;2023-07-31T19:43:50;21.40;72.10
69054;DHT22;56125;52.242;4.756;2023-07-31T19:48:51;21.40;71.30
69054;DHT22;56125;52.242;4.756;2023-07-31T19:53:54;21.40;72.00
69054;DHT22;56125;52.242;4.756;2023-07-31T19:58:55;21.40;70.10
69054;DHT22;56125;52.242;4.756;2023-07-31T20:03:56;21.40;69.90
69054;DHT22;56125;52.242;4.756;2023-07-31T20:08:57;21.30;69.50
69054;DHT22;56125;52.242;4.756;2023-07-31T20:14:03;21.30;69.40
69054;DHT22;56125;52.242;4.756;2023-07-31T20:19:04;21.30;69.40
69054;DHT22;56125;52.242;4.756;2023-07-31T20:24:07;21.30;69.50
69054;DHT22;56125;52.242;4.756;2023-07-31T20:29:08;21.30;69.50
69054;DHT22;56125;52.242;4.756;2023-07-31T20:34:09;21.30;69.60
69054;DHT22;56125;52.242;4.756;2023-07-31T20:39:12;21.30;69.70
69054;DHT22;56125;52.242;4.756;2023-07-31T20:44:13;21.30;69.60
69054;DHT22;56125;52.242;4.756;2023-07-31T20:49:14;21.30;69.60
69054;DHT22;56125;52.242;4.756;2023-07-31T20:54:15;21.30;69.70
69054;DHT22;56125;52.242;4.756;2023-07-31T20:59:18;21.30;69.80
69054;DHT22;56125;52.242;4.756;2023-07-31T21:04:19;21.30;69.90
69054;DHT22;56125;52.242;4.756;2023-07-31T21:09:20;21.30;70.00
69054;DHT22;56125;52.242;4.756;2023-07-31T21:14:21;21.30;70.00
69054;DHT22;56125;52.242;4.756;2023-07-31T21:19:22;21.30;70.00
69054;DHT22;56125;52.242;4.756;2023-07-31T21:24:23;21.30;70.20
69054;DHT22;56125;52.242;4.756;2023-07-31T21:29:24;21.30;70.10
69054;DHT22;56125;52.242;4.756;2023-07-31T21:34:27;21.30;70.50
69054;DHT22;56125;52.242;4.756;2023-07-31T21:39:28;21.20;70.80
69054;DHT22;56125;52.242;4.756;2023-07-31T21:44:29;21.30;70.80
69054;DHT22;56125;52.242;4.756;2023-07-31T21:49:30;21.20;70.60
69054;DHT22;56125;52.242;4.756;2023-07-31T21:54:31;21.20;70.70
69054;DHT22;56125;52.242;4.756;2023-07-31T21:59:32;21.20;70.60
69054;DHT22;56125;52.242;4.756;2023-07-31T22:04:33;21.20;69.70
69054;DHT22;56125;52.242;4.756;2023-07-31T22:09:34;21.20;69.50
69054;DHT22;56125;52.242;4.756;2023-07-31T22:14:35;21.20;69.40
69054;DHT22;56125;52.242;4.756;2023-07-31T22:19:36;21.20;69.20
69054;DHT22;56125;52.242;4.756;2023-07-31T22:24:37;21.20;69.10
69054;DHT22;56125;52.242;4.756;2023-07-31T22:29:40;21.10;69.00
69054;DHT22;56125;52.242;4.756;2023-07-31T22:34:41;21.10;68.80
69054;DHT22;56125;52.242;4.756;2023-07-31T22:39:42;21.10;68.80
69054;DHT22;56125;52.242;4.756;2023-07-31T22:44:43;21.10;68.60
69054;DHT22;56125;52.242;4.756;2023-07-31T22:49:44;21.10;68.50
69054;DHT22;56125;52.242;4.756;2023-07-31T22:54:45;21.10;68.50
69054;DHT22;56125;52.242;4.756;2023-07-31T22:59:46;21.10;68.50
69054;DHT22;56125;52.242;4.756;2023-07-31T23:04:47;21.10;68.50
69054;DHT22;56125;52.242;4.756;2023-07-31T23:09:53;21.10;68.50
69054;DHT22;56125;52.242;4.756;2023-07-31T23:14:56;21.10;68.50
69054;DHT22;56125;52.242;4.756;2023-07-31T23:19:57;21.10;68.50
69054;DHT22;56125;52.242;4.756;2023-07-31T23:24:58;21.10;68.60
69054;DHT22;56125;52.242;4.756;2023-07-31T23:29:59;21.10;68.50
69054;DHT22;56125;52.242;4.756;2023-07-31T23:35:00;21.00;68.40
69054;DHT22;56125;52.242;4.756;2023-07-31T23:40:01;21.10;68.50
69054;DHT22;56125;52.242;4.756;2023-07-31T23:45:02;21.00;68.40
69054;DHT22;56125;52.242;4.756;2023-07-31T23:50:03;21.00;68.40
69054;DHT22;56125;52.242;4.756;2023-07-31T23:55:05;21.00;68.30
